createdAt,value
2017-02-01T00:00:56.963Z,0
2017-02-01T00:01:56.577Z,0
2017-02-01T00:02:56.829Z,0
2017-02-01T00:03:56.946Z,0
2017-02-01T00:04:56.940Z,0
2017-02-01T00:05:57.007Z,0
2017-02-01T00:06:57.107Z,0
2017-02-01T00:07:57.015Z,0
2017-02-01T00:08:57.066Z,0
2017-02-01T00:09:56.971Z,0
2017-02-01T00:10:56.977Z,0
2017-02-01T00:11:57.031Z,0
2017-02-01T00:12:56.280Z,0
2017-02-01T00:13:56.706Z,0
2017-02-01T00:14:56.607Z,0
2017-02-01T00:15:57.061Z,0
2017-02-01T00:16:56.279Z,0
2017-02-01T00:17:57.027Z,0
2017-02-01T00:18:57.164Z,0
2017-02-01T00:19:57.047Z,0
2017-02-01T00:20:57.144Z,0
2017-02-01T00:21:56.256Z,0
2017-02-01T00:22:57.106Z,0
2017-02-01T00:23:56.718Z,0
2017-02-01T00:24:56.777Z,0
2017-02-01T00:25:57.256Z,0
2017-02-01T00:26:57.134Z,0
2017-02-01T00:27:57.192Z,0
2017-02-01T00:28:57.228Z,0
2017-02-01T00:29:56.830Z,0
2017-02-01T00:30:57.211Z,0
2017-02-01T00:31:56.353Z,0
2017-02-01T00:32:56.748Z,0
2017-02-01T00:33:57.308Z,0
2017-02-01T00:34:57.245Z,0
2017-02-01T00:35:56.445Z,0
2017-02-01T00:36:56.489Z,0
2017-02-01T00:37:56.420Z,0
2017-02-01T00:38:57.217Z,0
2017-02-01T00:39:57.223Z,0
2017-02-01T00:40:57.174Z,0
2017-02-01T00:41:57.256Z,0
2017-02-01T00:42:57.291Z,0
2017-02-01T00:43:57.248Z,0
2017-02-01T00:44:56.876Z,0
2017-02-01T00:45:56.913Z,0
2017-02-01T00:46:57.329Z,0
2017-02-01T00:47:56.823Z,0
2017-02-01T00:48:56.841Z,0
2017-02-01T00:49:56.893Z,0
2017-02-01T00:50:56.894Z,0
2017-02-01T00:51:56.556Z,0
2017-02-01T00:52:57.403Z,0
2017-02-01T00:53:57.165Z,0
2017-02-01T00:54:57.273Z,0
2017-02-01T00:55:56.926Z,0
2017-02-01T00:56:56.984Z,0
2017-02-01T00:57:57.362Z,0
2017-02-01T00:58:57.296Z,0
2017-02-01T00:59:57.351Z,0
2017-02-01T01:00:57.309Z,0
2017-02-01T01:01:57.407Z,0
2017-02-01T01:02:57.430Z,0
2017-02-01T01:03:57.376Z,0
2017-02-01T01:04:57.432Z,0
2017-02-01T01:05:57.436Z,0
2017-02-01T01:06:56.557Z,0
2017-02-01T01:07:57.731Z,0
2017-02-01T01:08:57.140Z,0
2017-02-01T01:09:56.627Z,0
2017-02-01T01:10:57.470Z,0
2017-02-01T01:11:57.429Z,0
2017-02-01T01:12:57.421Z,0
2017-02-01T01:13:57.051Z,0
2017-02-01T01:14:57.393Z,0
2017-02-01T01:15:57.403Z,0
2017-02-01T01:16:57.408Z,0
2017-02-01T01:17:57.062Z,0
2017-02-01T01:18:57.022Z,0
2017-02-01T01:19:57.035Z,0
2017-02-01T01:20:57.513Z,0
2017-02-01T01:21:57.438Z,0
2017-02-01T01:22:57.498Z,0
2017-02-01T01:23:57.455Z,0
2017-02-01T01:24:57.671Z,0
2017-02-01T01:25:57.568Z,0
2017-02-01T01:26:57.525Z,0
2017-02-01T01:27:57.535Z,0
2017-02-01T01:28:57.085Z,0
2017-02-01T01:29:57.095Z,0
2017-02-01T01:30:57.550Z,0
2017-02-01T01:31:57.660Z,0
2017-02-01T01:32:57.556Z,0
2017-02-01T01:33:57.517Z,0
2017-02-01T01:34:57.135Z,0
2017-02-01T01:35:57.532Z,0
2017-02-01T01:36:57.191Z,0
2017-02-01T01:37:57.596Z,0
2017-02-01T01:38:57.992Z,0
2017-02-01T01:39:57.649Z,0
2017-02-01T01:40:57.171Z,0
2017-02-01T01:41:57.074Z,0
2017-02-01T01:42:57.229Z,0
2017-02-01T01:43:57.181Z,0
2017-02-01T01:44:57.582Z,0
2017-02-01T01:45:57.250Z,0
2017-02-01T01:46:57.653Z,0
2017-02-01T01:47:57.653Z,0
2017-02-01T01:48:57.615Z,0
2017-02-01T01:49:57.916Z,0
2017-02-01T01:50:57.679Z,0
2017-02-01T01:51:57.630Z,0
2017-02-01T01:52:56.950Z,0
2017-02-01T01:53:57.677Z,0
2017-02-01T01:54:57.312Z,0
2017-02-01T01:55:57.314Z,0
2017-02-01T01:56:57.275Z,0
2017-02-01T01:57:57.274Z,0
2017-02-01T01:58:57.773Z,0
2017-02-01T01:59:57.292Z,0
2017-02-01T02:00:57.698Z,0
2017-02-01T02:01:57.697Z,0
2017-02-01T02:02:57.403Z,0
2017-02-01T02:03:57.809Z,0
2017-02-01T02:04:57.709Z,0
2017-02-01T02:05:57.771Z,0
2017-02-01T02:06:57.377Z,0
2017-02-01T02:07:57.834Z,0
2017-02-01T02:08:57.521Z,0
2017-02-01T02:09:57.498Z,0
2017-02-01T02:10:57.752Z,0
2017-02-01T02:11:57.855Z,0
2017-02-01T02:12:57.763Z,0
2017-02-01T02:13:57.424Z,0
2017-02-01T02:14:57.777Z,0
2017-02-01T02:15:57.785Z,0
2017-02-01T02:16:57.838Z,0
2017-02-01T02:17:57.852Z,0
2017-02-01T02:18:57.853Z,0
2017-02-01T02:19:57.412Z,0
2017-02-01T02:20:57.811Z,0
2017-02-01T02:21:57.420Z,0
2017-02-01T02:22:57.926Z,0
2017-02-01T02:23:57.981Z,0
2017-02-01T02:24:57.887Z,0
2017-02-01T02:25:57.061Z,0
2017-02-01T02:26:57.903Z,0
2017-02-01T02:27:57.907Z,0
2017-02-01T02:28:57.517Z,0
2017-02-01T02:29:57.475Z,0
2017-02-01T02:30:57.934Z,0
2017-02-01T02:31:57.917Z,0
2017-02-01T02:32:57.945Z,0
2017-02-01T02:33:57.554Z,0
2017-02-01T02:34:57.951Z,0
2017-02-01T02:35:57.916Z,0
2017-02-01T02:36:57.976Z,0
2017-02-01T02:37:57.529Z,0
2017-02-01T02:38:57.932Z,0
2017-02-01T02:39:58.042Z,0
2017-02-01T02:40:58.096Z,0
2017-02-01T02:41:58.001Z,0
2017-02-01T02:42:57.961Z,0
2017-02-01T02:43:58.013Z,0
2017-02-01T02:44:57.983Z,0
2017-02-01T02:45:57.683Z,0
2017-02-01T02:46:57.589Z,0
2017-02-01T02:47:58.068Z,0
2017-02-01T02:48:57.601Z,0
2017-02-01T02:49:58.053Z,0
2017-02-01T02:50:57.271Z,0
2017-02-01T02:51:57.722Z,0
2017-02-01T02:52:58.068Z,0
2017-02-01T02:53:57.686Z,0
2017-02-01T02:54:58.036Z,0
2017-02-01T02:55:58.094Z,0
2017-02-01T02:56:57.610Z,0
2017-02-01T02:57:57.656Z,0
2017-02-01T02:58:58.114Z,0
2017-02-01T02:59:57.728Z,0
2017-02-01T03:00:57.780Z,0
2017-02-01T03:01:57.789Z,0
2017-02-01T03:02:58.087Z,0
2017-02-01T03:03:57.878Z,0
2017-02-01T03:04:58.152Z,0
2017-02-01T03:05:57.418Z,0
2017-02-01T03:06:57.768Z,0
2017-02-01T03:07:58.127Z,0
2017-02-01T03:08:58.176Z,0
2017-02-01T03:09:57.479Z,0
2017-02-01T03:10:57.795Z,0
2017-02-01T03:11:58.202Z,0
2017-02-01T03:12:58.210Z,0
2017-02-01T03:13:58.249Z,0
2017-02-01T03:14:58.166Z,0
2017-02-01T03:15:58.226Z,0
2017-02-01T03:16:58.283Z,0
2017-02-01T03:17:57.797Z,0
2017-02-01T03:18:58.293Z,0
2017-02-01T03:19:58.251Z,0
2017-02-01T03:20:57.997Z,0
2017-02-01T03:21:57.914Z,0
2017-02-01T03:22:58.270Z,0
2017-02-01T03:23:57.877Z,0
2017-02-01T03:24:57.833Z,0
2017-02-01T03:25:58.283Z,0
2017-02-01T03:26:58.244Z,0
2017-02-01T03:27:57.901Z,0
2017-02-01T03:28:57.907Z,0
2017-02-01T03:29:58.265Z,0
2017-02-01T03:30:58.335Z,0
2017-02-01T03:31:58.378Z,0
2017-02-01T03:32:58.330Z,0
2017-02-01T03:33:58.533Z,0
2017-02-01T03:34:58.340Z,0
2017-02-01T03:35:57.906Z,0
2017-02-01T03:36:58.462Z,0
2017-02-01T03:37:58.047Z,0
2017-02-01T03:38:58.312Z,0
2017-02-01T03:39:58.423Z,0
2017-02-01T03:40:57.935Z,0
2017-02-01T03:41:57.943Z,0
2017-02-01T03:42:58.344Z,0
2017-02-01T03:43:57.611Z,0
2017-02-01T03:44:58.410Z,0
2017-02-01T03:45:58.363Z,0
2017-02-01T03:46:58.553Z,0
2017-02-01T03:47:58.376Z,0
2017-02-01T03:48:57.992Z,0
2017-02-01T03:49:58.494Z,0
2017-02-01T03:50:58.548Z,0
2017-02-01T03:51:58.059Z,0
2017-02-01T03:52:58.510Z,0
2017-02-01T03:53:58.022Z,0
2017-02-01T03:54:58.422Z,0
2017-02-01T03:55:58.474Z,0
2017-02-01T03:56:58.437Z,0
2017-02-01T03:57:58.589Z,0
2017-02-01T03:58:58.148Z,0
2017-02-01T03:59:58.502Z,0
2017-02-01T04:00:58.560Z,0
2017-02-01T04:01:58.168Z,0
2017-02-01T04:02:58.483Z,0
2017-02-01T04:03:58.085Z,0
2017-02-01T04:04:58.147Z,0
2017-02-01T04:05:58.641Z,0
2017-02-01T04:06:58.597Z,0
2017-02-01T04:07:58.530Z,0
2017-02-01T04:08:58.505Z,0
2017-02-01T04:09:58.119Z,0
2017-02-01T04:10:58.520Z,0
2017-02-01T04:11:57.733Z,0
2017-02-01T04:12:58.583Z,0
2017-02-01T04:13:58.142Z,0
2017-02-01T04:14:58.543Z,0
2017-02-01T04:15:58.599Z,0
2017-02-01T04:16:58.215Z,0
2017-02-01T04:17:58.324Z,0
2017-02-01T04:18:58.576Z,0
2017-02-01T04:19:58.634Z,0
2017-02-01T04:20:58.587Z,0
2017-02-01T04:21:58.196Z,0
2017-02-01T04:22:58.644Z,0
2017-02-01T04:23:58.603Z,0
2017-02-01T04:24:58.662Z,0
2017-02-01T04:25:58.418Z,0
2017-02-01T04:26:58.619Z,0
2017-02-01T04:27:58.278Z,0
2017-02-01T04:28:58.243Z,0
2017-02-01T04:29:58.743Z,0
2017-02-01T04:30:58.211Z,0
2017-02-01T04:31:58.708Z,0
2017-02-01T04:32:58.807Z,0
2017-02-01T04:33:58.318Z,0
2017-02-01T04:34:58.278Z,0
2017-02-01T04:35:58.785Z,0
2017-02-01T04:36:58.745Z,0
2017-02-01T04:37:58.353Z,0
2017-02-01T04:38:58.696Z,0
2017-02-01T04:39:58.756Z,0
2017-02-01T04:40:58.761Z,0
2017-02-01T04:41:58.052Z,0
2017-02-01T04:42:58.725Z,0
2017-02-01T04:43:58.384Z,0
2017-02-01T04:44:58.393Z,0
2017-02-01T04:45:58.843Z,0
2017-02-01T04:46:58.796Z,0
2017-02-01T04:47:58.758Z,0
2017-02-01T04:48:58.857Z,0
2017-02-01T04:49:58.421Z,0
2017-02-01T04:50:58.825Z,0
2017-02-01T04:51:58.487Z,0
2017-02-01T04:52:58.403Z,0
2017-02-01T04:53:58.495Z,0
2017-02-01T04:54:58.506Z,0
2017-02-01T04:55:58.514Z,0
2017-02-01T04:56:58.810Z,0
2017-02-01T04:57:58.869Z,0
2017-02-01T04:58:58.479Z,0
2017-02-01T04:59:58.927Z,0
2017-02-01T05:00:58.886Z,0
2017-02-01T05:01:58.051Z,0
2017-02-01T05:02:57.715Z,0
2017-02-01T05:03:58.952Z,0
2017-02-01T05:04:58.858Z,0
2017-02-01T05:05:58.564Z,0
2017-02-01T05:06:58.527Z,0
2017-02-01T05:07:58.488Z,0
2017-02-01T05:08:58.399Z,0
2017-02-01T05:09:58.943Z,0
2017-02-01T05:10:58.949Z,0
2017-02-01T05:11:58.904Z,0
2017-02-01T05:12:58.962Z,0
2017-02-01T05:13:58.678Z,0
2017-02-01T05:14:58.582Z,0
2017-02-01T05:15:58.929Z,0
2017-02-01T05:16:58.543Z,0
2017-02-01T05:17:58.947Z,0
2017-02-01T05:18:58.950Z,0
2017-02-01T05:19:58.955Z,0
2017-02-01T05:20:59.018Z,0
2017-02-01T05:21:59.053Z,0
2017-02-01T05:22:59.025Z,0
2017-02-01T05:23:59.015Z,0
2017-02-01T05:24:58.701Z,0
2017-02-01T05:25:58.599Z,0
2017-02-01T05:26:58.605Z,0
2017-02-01T05:27:58.617Z,0
2017-02-01T05:28:59.011Z,0
2017-02-01T05:29:58.624Z,0
2017-02-01T05:30:59.027Z,0
2017-02-01T05:31:58.691Z,0
2017-02-01T05:32:59.083Z,0
2017-02-01T05:33:59.097Z,0
2017-02-01T05:34:59.205Z,0
2017-02-01T05:35:58.666Z,0
2017-02-01T05:36:59.112Z,0
2017-02-01T05:37:59.279Z,0
2017-02-01T05:38:59.230Z,0
2017-02-01T05:39:58.739Z,0
2017-02-01T05:40:59.092Z,0
2017-02-01T05:41:59.148Z,0
2017-02-01T05:42:58.709Z,0
2017-02-01T05:43:59.209Z,0
2017-02-01T05:44:59.117Z,0
2017-02-01T05:45:58.835Z,0
2017-02-01T05:46:59.132Z,0
2017-02-01T05:47:59.138Z,0
2017-02-01T05:48:59.200Z,0
2017-02-01T05:49:59.305Z,0
2017-02-01T05:50:59.207Z,0
2017-02-01T05:51:59.216Z,0
2017-02-01T05:52:59.219Z,0
2017-02-01T05:53:59.279Z,0
2017-02-01T05:54:58.438Z,0
2017-02-01T05:55:59.244Z,0
2017-02-01T05:56:58.799Z,0
2017-02-01T05:57:59.251Z,0
2017-02-01T05:58:59.200Z,0
2017-02-01T05:59:58.914Z,0
2017-02-01T06:00:59.314Z,0
2017-02-01T06:01:59.383Z,0
2017-02-01T06:02:59.336Z,0
2017-02-01T06:03:58.839Z,0
2017-02-01T06:04:59.294Z,0
2017-02-01T06:05:58.520Z,0
2017-02-01T06:06:58.520Z,0
2017-02-01T06:07:58.927Z,0
2017-02-01T06:08:59.469Z,0
2017-02-01T06:09:59.280Z,0
2017-02-01T06:10:58.888Z,0
2017-02-01T06:11:59.392Z,0
2017-02-01T06:12:58.910Z,0
2017-02-01T06:13:59.358Z,0
2017-02-01T06:14:59.403Z,0
2017-02-01T06:15:58.529Z,0
2017-02-01T06:16:59.378Z,0
2017-02-01T06:17:59.377Z,0
2017-02-01T06:18:59.388Z,0
2017-02-01T06:19:59.388Z,0
2017-02-01T06:20:59.351Z,0
2017-02-01T06:21:58.956Z,0
2017-02-01T06:22:59.459Z,0
2017-02-01T06:23:59.362Z,0
2017-02-01T06:24:58.682Z,0
2017-02-01T06:25:59.379Z,0
2017-02-01T06:26:59.092Z,0
2017-02-01T06:27:59.385Z,0
2017-02-01T06:28:58.608Z,0
2017-02-01T06:29:59.402Z,0
2017-02-01T06:30:59.454Z,0
2017-02-01T06:31:59.077Z,0
2017-02-01T06:32:59.424Z,0
2017-02-01T06:33:59.479Z,0
2017-02-01T06:34:59.484Z,0
2017-02-01T06:35:59.505Z,0
2017-02-01T06:36:59.507Z,0
2017-02-01T06:37:59.156Z,0
2017-02-01T06:38:59.506Z,0
2017-02-01T06:39:59.471Z,0
2017-02-01T06:40:59.474Z,0
2017-02-01T06:41:59.126Z,0
2017-02-01T06:42:59.544Z,0
2017-02-01T06:43:59.143Z,0
2017-02-01T06:44:59.551Z,0
2017-02-01T06:45:59.111Z,0
2017-02-01T06:46:59.562Z,0
2017-02-01T06:47:59.171Z,0
2017-02-01T06:48:59.622Z,0
2017-02-01T06:49:59.184Z,0
2017-02-01T06:50:59.239Z,0
2017-02-01T06:51:59.594Z,0
2017-02-01T06:52:58.798Z,0
2017-02-01T06:53:59.210Z,0
2017-02-01T06:54:59.208Z,0
2017-02-01T06:55:59.566Z,0
2017-02-01T06:56:59.624Z,0
2017-02-01T06:57:59.640Z,0
2017-02-01T06:58:59.486Z,0
2017-02-01T06:59:59.594Z,0
2017-02-01T07:00:59.295Z,0
2017-02-01T07:02:14.080Z,0
2017-02-01T07:02:59.272Z,0
2017-02-01T07:03:59.263Z,0
2017-02-01T07:04:59.329Z,0
2017-02-01T07:05:59.611Z,0
2017-02-01T07:06:59.684Z,0
2017-02-01T07:07:59.701Z,0
2017-02-01T07:08:59.695Z,0
2017-02-01T07:09:59.649Z,0
2017-02-01T07:10:59.761Z,0
2017-02-01T07:11:59.726Z,0
2017-02-01T07:12:59.727Z,0
2017-02-01T07:13:59.779Z,0
2017-02-01T07:14:59.688Z,0
2017-02-01T07:15:59.742Z,0
2017-02-01T07:16:59.315Z,0
2017-02-01T07:17:59.751Z,0
2017-02-01T07:18:59.719Z,0
2017-02-01T07:19:59.711Z,0
2017-02-01T07:21:00.069Z,0
2017-02-01T07:21:59.732Z,5
2017-02-01T07:22:59.787Z,0
2017-02-01T07:23:59.743Z,5
2017-02-01T07:24:59.752Z,0
2017-02-01T07:25:59.756Z,5
2017-02-01T07:26:59.420Z,5
2017-02-01T07:27:59.770Z,5
2017-02-01T07:28:59.584Z,5
2017-02-01T07:29:59.812Z,5
2017-02-01T07:30:59.837Z,5
2017-02-01T07:31:59.399Z,10
2017-02-01T07:32:59.463Z,10
2017-02-01T07:33:59.860Z,10
2017-02-01T07:34:59.484Z,10
2017-02-01T07:35:59.128Z,10
2017-02-01T07:36:59.137Z,10
2017-02-01T07:37:59.840Z,10
2017-02-01T07:38:59.895Z,10
2017-02-01T07:39:59.947Z,15
2017-02-01T07:41:00.212Z,15
2017-02-01T07:41:59.914Z,15
2017-02-01T07:42:59.522Z,15
2017-02-01T07:44:00.471Z,15
2017-02-01T07:44:59.981Z,15
2017-02-01T07:45:59.886Z,15
2017-02-01T07:46:59.947Z,15
2017-02-01T07:47:59.561Z,15
2017-02-01T07:48:59.914Z,15
2017-02-01T07:50:00.041Z,15
2017-02-01T07:51:00.024Z,20
2017-02-01T07:51:59.484Z,20
2017-02-01T07:53:00.038Z,20
2017-02-01T07:53:59.992Z,20
2017-02-01T07:54:59.997Z,20
2017-02-01T07:55:59.955Z,20
2017-02-01T07:57:00.020Z,20
2017-02-01T07:57:59.635Z,20
2017-02-01T07:58:59.735Z,15
2017-02-01T08:00:00.041Z,20
2017-02-01T08:00:59.745Z,20
2017-02-01T08:01:59.649Z,20
2017-02-01T08:02:59.564Z,20
2017-02-01T08:04:00.064Z,20
2017-02-01T08:05:00.119Z,20
2017-02-01T08:05:59.636Z,20
2017-02-01T08:06:59.639Z,20
2017-02-01T08:07:59.647Z,15
2017-02-01T08:08:59.684Z,15
2017-02-01T08:09:59.760Z,15
2017-02-01T08:10:59.322Z,15
2017-02-01T08:12:00.121Z,15
2017-02-01T08:12:59.729Z,15
2017-02-01T08:14:00.142Z,15
2017-02-01T08:15:00.102Z,15
2017-02-01T08:16:00.148Z,15
2017-02-01T08:16:59.716Z,15
2017-02-01T08:18:00.118Z,15
2017-02-01T08:19:00.127Z,15
2017-02-01T08:19:59.733Z,15
2017-02-01T08:20:59.790Z,15
2017-02-01T08:21:59.747Z,20
2017-02-01T08:23:00.202Z,20
2017-02-01T08:23:59.808Z,20
2017-02-01T08:25:00.262Z,20
2017-02-01T08:26:00.220Z,20
2017-02-01T08:27:00.277Z,20
2017-02-01T08:28:00.239Z,20
2017-02-01T08:29:00.248Z,20
2017-02-01T08:30:00.245Z,20
2017-02-01T08:31:00.304Z,20
2017-02-01T08:32:00.256Z,25
2017-02-01T08:33:00.177Z,20
2017-02-01T08:33:59.888Z,20
2017-02-01T08:34:59.832Z,20
2017-02-01T08:35:59.902Z,15
2017-02-01T08:37:00.310Z,15
2017-02-01T08:37:59.913Z,15
2017-02-01T08:39:00.319Z,20
2017-02-01T08:39:59.941Z,20
2017-02-01T08:41:00.644Z,20
2017-02-01T08:42:00.283Z,20
2017-02-01T08:43:00.346Z,20
2017-02-01T08:44:00.349Z,20
2017-02-01T08:45:00.309Z,20
2017-02-01T08:46:00.017Z,20
2017-02-01T08:46:59.972Z,20
2017-02-01T08:48:00.421Z,15
2017-02-01T08:49:00.343Z,20
2017-02-01T08:50:00.387Z,20
2017-02-01T08:51:00.395Z,20
2017-02-01T08:51:59.614Z,20
2017-02-01T08:53:00.065Z,25
2017-02-01T08:54:00.426Z,20
2017-02-01T08:55:00.422Z,20
2017-02-01T08:55:59.191Z,25
2017-02-01T08:56:59.991Z,25
2017-02-01T08:58:00.052Z,25
2017-02-01T08:59:00.013Z,20
2017-02-01T08:59:59.329Z,20
2017-02-01T09:01:00.120Z,20
2017-02-01T09:02:00.079Z,20
2017-02-01T09:03:00.036Z,20
2017-02-01T09:04:00.091Z,20
2017-02-01T09:05:00.494Z,25
2017-02-01T09:06:00.106Z,25
2017-02-01T09:07:00.509Z,20
2017-02-01T09:08:00.596Z,20
2017-02-01T09:09:00.577Z,20
2017-02-01T09:10:00.162Z,20
2017-02-01T09:11:00.090Z,20
2017-02-01T09:12:00.102Z,25
2017-02-01T09:13:00.804Z,25
2017-02-01T09:14:00.263Z,25
2017-02-01T09:15:00.521Z,25
2017-02-01T09:16:00.135Z,25
2017-02-01T09:17:00.531Z,25
2017-02-01T09:18:00.540Z,25
2017-02-01T09:19:00.596Z,30
2017-02-01T09:20:00.210Z,30
2017-02-01T09:21:00.222Z,25
2017-02-01T09:22:00.169Z,25
2017-02-01T09:23:00.281Z,25
2017-02-01T09:23:59.787Z,25
2017-02-01T09:25:00.636Z,25
2017-02-01T09:26:00.646Z,25
2017-02-01T09:26:59.810Z,25
2017-02-01T09:28:00.689Z,30
2017-02-01T09:29:00.702Z,30
2017-02-01T09:30:00.675Z,25
2017-02-01T09:31:00.736Z,30
2017-02-01T09:32:00.692Z,30
2017-02-01T09:32:59.903Z,35
2017-02-01T09:34:00.261Z,40
2017-02-01T09:35:00.710Z,40
2017-02-01T09:35:59.928Z,40
2017-02-01T09:37:00.380Z,45
2017-02-01T09:38:00.342Z,50
2017-02-01T09:39:00.846Z,50
2017-02-01T09:40:00.701Z,55
2017-02-01T09:41:00.758Z,55
2017-02-01T09:42:00.762Z,60
2017-02-01T09:43:00.324Z,80
2017-02-01T09:44:00.833Z,70
2017-02-01T09:45:00.747Z,70
2017-02-01T09:46:00.058Z,65
2017-02-01T09:46:59.964Z,60
2017-02-01T09:47:59.969Z,80
2017-02-01T09:49:00.766Z,60
2017-02-01T09:50:00.820Z,70
2017-02-01T09:51:01.132Z,50
2017-02-01T09:52:00.845Z,45
2017-02-01T09:53:00.799Z,45
2017-02-01T09:54:00.506Z,50
2017-02-01T09:55:00.862Z,50
2017-02-01T09:56:01.123Z,50
2017-02-01T09:57:00.898Z,55
2017-02-01T09:58:00.885Z,70
2017-02-01T09:59:00.894Z,70
2017-02-01T10:00:00.946Z,70
2017-02-01T10:01:00.761Z,80
2017-02-01T10:02:00.900Z,80
2017-02-01T10:03:00.874Z,75
2017-02-01T10:04:00.931Z,115
2017-02-01T10:05:00.946Z,115
2017-02-01T10:06:01.003Z,135
2017-02-01T10:07:00.962Z,120
2017-02-01T10:08:00.123Z,110
2017-02-01T10:09:01.024Z,105
2017-02-01T10:10:00.928Z,75
2017-02-01T10:11:00.590Z,75
2017-02-01T10:12:00.995Z,85
2017-02-01T10:13:00.656Z,80
2017-02-01T10:14:01.020Z,80
2017-02-01T10:15:00.626Z,95
2017-02-01T10:16:00.978Z,95
2017-02-01T10:17:00.589Z,80
2017-02-01T10:18:01.090Z,85
2017-02-01T10:19:00.758Z,75
2017-02-01T10:20:01.009Z,85
2017-02-01T10:21:01.071Z,90
2017-02-01T10:22:01.022Z,75
2017-02-01T10:23:01.031Z,85
2017-02-01T10:24:01.146Z,85
2017-02-01T10:24:59.995Z,80
2017-02-01T10:26:01.113Z,80
2017-02-01T10:27:01.217Z,80
2017-02-01T10:28:00.683Z,80
2017-02-01T10:29:00.732Z,70
2017-02-01T10:30:01.194Z,70
2017-02-01T10:31:01.147Z,65
2017-02-01T10:32:00.775Z,70
2017-02-01T10:33:01.156Z,65
2017-02-01T10:34:00.792Z,75
2017-02-01T10:35:00.386Z,75
2017-02-01T10:36:00.737Z,65
2017-02-01T10:37:00.851Z,70
2017-02-01T10:38:00.752Z,75
2017-02-01T10:39:01.253Z,70
2017-02-01T10:40:01.159Z,70
2017-02-01T10:41:00.873Z,65
2017-02-01T10:42:01.237Z,70
2017-02-01T10:43:00.927Z,65
2017-02-01T10:44:15.777Z,65
2017-02-01T10:45:01.202Z,65
2017-02-01T10:46:01.205Z,60
2017-02-01T10:47:01.269Z,65
2017-02-01T10:48:01.229Z,55
2017-02-01T10:49:00.932Z,55
2017-02-01T10:50:01.038Z,60
2017-02-01T10:51:01.241Z,60
2017-02-01T10:52:01.303Z,65
2017-02-01T10:53:00.465Z,60
2017-02-01T10:54:01.317Z,60
2017-02-01T10:55:01.323Z,60
2017-02-01T10:56:01.335Z,60
2017-02-01T10:57:00.961Z,60
2017-02-01T10:58:01.347Z,60
2017-02-01T10:59:00.902Z,55
2017-02-01T11:00:01.414Z,55
2017-02-01T11:01:01.364Z,55
2017-02-01T11:02:00.584Z,55
2017-02-01T11:03:00.983Z,55
2017-02-01T11:04:01.440Z,55
2017-02-01T11:05:01.456Z,50
2017-02-01T11:06:01.401Z,55
2017-02-01T11:07:01.365Z,55
2017-02-01T11:08:01.451Z,55
2017-02-01T11:09:01.413Z,55
2017-02-01T11:10:01.494Z,55
2017-02-01T11:11:01.499Z,55
2017-02-01T11:12:01.425Z,55
2017-02-01T11:13:01.551Z,55
2017-02-01T11:14:01.417Z,55
2017-02-01T11:15:01.028Z,50
2017-02-01T11:16:01.034Z,55
2017-02-01T11:17:01.441Z,50
2017-02-01T11:18:01.048Z,50
2017-02-01T11:19:01.497Z,55
2017-02-01T11:20:01.465Z,55
2017-02-01T11:21:01.121Z,50
2017-02-01T11:22:01.101Z,50
2017-02-01T11:23:01.550Z,50
2017-02-01T11:24:01.636Z,50
2017-02-01T11:25:01.498Z,50
2017-02-01T11:26:01.553Z,50
2017-02-01T11:27:01.510Z,50
2017-02-01T11:28:01.153Z,50
2017-02-01T11:29:01.571Z,50
2017-02-01T11:30:01.581Z,50
2017-02-01T11:31:01.543Z,50
2017-02-01T11:32:01.622Z,50
2017-02-01T11:33:01.161Z,50
2017-02-01T11:34:01.663Z,50
2017-02-01T11:35:01.224Z,50
2017-02-01T11:36:01.633Z,50
2017-02-01T11:37:01.642Z,50
2017-02-01T11:38:01.695Z,50
2017-02-01T11:39:01.608Z,50
2017-02-01T11:40:01.763Z,50
2017-02-01T11:41:01.763Z,50
2017-02-01T11:42:01.675Z,50
2017-02-01T11:43:01.928Z,50
2017-02-01T11:44:01.241Z,50
2017-02-01T11:45:01.724Z,50
2017-02-01T11:46:01.656Z,50
2017-02-01T11:47:01.711Z,50
2017-02-01T11:48:01.720Z,50
2017-02-01T11:49:01.431Z,50
2017-02-01T11:50:01.393Z,50
2017-02-01T11:51:01.694Z,50
2017-02-01T11:52:01.703Z,50
2017-02-01T11:53:01.375Z,50
2017-02-01T11:54:01.812Z,50
2017-02-01T11:55:01.362Z,50
2017-02-01T11:56:01.387Z,50
2017-02-01T11:57:01.733Z,50
2017-02-01T11:58:01.796Z,50
2017-02-01T11:59:01.799Z,50
2017-02-01T12:00:01.082Z,50
2017-02-01T12:01:01.867Z,50
2017-02-01T12:02:01.430Z,50
2017-02-01T12:03:01.826Z,50
2017-02-01T12:04:01.533Z,50
2017-02-01T12:05:01.894Z,50
2017-02-01T12:06:01.154Z,50
2017-02-01T12:07:01.404Z,50
2017-02-01T12:08:01.858Z,50
2017-02-01T12:09:01.874Z,50
2017-02-01T12:10:01.542Z,50
2017-02-01T12:11:01.935Z,50
2017-02-01T12:12:01.956Z,45
2017-02-01T12:13:02.599Z,45
2017-02-01T12:14:01.962Z,45
2017-02-01T12:15:01.877Z,45
2017-02-01T12:16:01.124Z,45
2017-02-01T12:17:02.020Z,45
2017-02-01T12:18:01.536Z,45
2017-02-01T12:19:01.115Z,45
2017-02-01T12:20:01.560Z,45
2017-02-01T12:21:01.116Z,45
2017-02-01T12:22:02.067Z,45
2017-02-01T12:23:01.571Z,45
2017-02-01T12:24:01.926Z,45
2017-02-01T12:25:01.989Z,45
2017-02-01T12:26:01.554Z,45
2017-02-01T12:27:01.712Z,45
2017-02-01T12:28:02.106Z,45
2017-02-01T12:29:01.924Z,45
2017-02-01T12:30:01.626Z,45
2017-02-01T12:31:01.615Z,45
2017-02-01T12:32:01.987Z,45
2017-02-01T12:33:01.641Z,45
2017-02-01T12:34:02.006Z,45
2017-02-01T12:35:02.054Z,40
2017-02-01T12:36:01.268Z,40
2017-02-01T12:37:01.647Z,40
2017-02-01T12:38:01.628Z,40
2017-02-01T12:39:01.416Z,40
2017-02-01T12:40:02.145Z,40
2017-02-01T12:41:02.454Z,40
2017-02-01T12:42:01.655Z,40
2017-02-01T12:43:01.283Z,40
2017-02-01T12:44:01.729Z,40
2017-02-01T12:45:03.151Z,40
2017-02-01T12:46:02.136Z,40
2017-02-01T12:47:01.750Z,40
2017-02-01T12:48:02.197Z,40
2017-02-01T12:49:02.110Z,40
2017-02-01T12:50:02.161Z,40
2017-02-01T12:51:02.111Z,40
2017-02-01T12:52:01.789Z,40
2017-02-01T12:53:01.391Z,40
2017-02-01T12:54:02.206Z,40
2017-02-01T12:55:02.257Z,40
2017-02-01T12:56:02.211Z,40
2017-02-01T12:57:02.163Z,35
2017-02-01T12:58:01.843Z,40
2017-02-01T12:59:02.280Z,40
2017-02-01T13:00:01.425Z,40
2017-02-01T13:01:02.201Z,40
2017-02-01T13:02:02.236Z,40
2017-02-01T13:03:01.867Z,40
2017-02-01T13:04:03.024Z,40
2017-02-01T13:05:01.825Z,40
2017-02-01T13:06:02.338Z,40
2017-02-01T13:07:02.337Z,40
2017-02-01T13:08:02.298Z,40
2017-02-01T13:09:02.417Z,40
2017-02-01T13:10:02.257Z,40
2017-02-01T13:11:01.922Z,40
2017-02-01T13:12:02.371Z,40
2017-02-01T13:13:02.031Z,40
2017-02-01T13:14:02.434Z,40
2017-02-01T13:15:02.343Z,35
2017-02-01T13:16:01.956Z,35
2017-02-01T13:17:02.498Z,35
2017-02-01T13:18:02.112Z,35
2017-02-01T13:19:02.320Z,35
2017-02-01T13:20:01.932Z,35
2017-02-01T13:21:02.012Z,35
2017-02-01T13:22:01.999Z,35
2017-02-01T13:23:01.557Z,35
2017-02-01T13:24:02.011Z,35
2017-02-01T13:25:02.410Z,35
2017-02-01T13:26:02.346Z,35
2017-02-01T13:27:02.426Z,35
2017-02-01T13:28:02.450Z,35
2017-02-01T13:29:01.702Z,35
2017-02-01T13:30:02.500Z,35
2017-02-01T13:31:02.460Z,30
2017-02-01T13:32:01.629Z,30
2017-02-01T13:33:02.424Z,30
2017-02-01T13:34:02.036Z,30
2017-02-01T13:35:02.090Z,30
2017-02-01T13:36:02.101Z,30
2017-02-01T13:37:02.600Z,30
2017-02-01T13:38:02.467Z,35
2017-02-01T13:39:02.466Z,30
2017-02-01T13:40:02.627Z,30
2017-02-01T13:41:02.583Z,30
2017-02-01T13:42:02.567Z,30
2017-02-01T13:43:02.500Z,35
2017-02-01T13:44:02.109Z,40
2017-02-01T13:45:02.176Z,40
2017-02-01T13:46:02.131Z,35
2017-02-01T13:47:02.578Z,30
2017-02-01T13:48:02.196Z,30
2017-02-01T13:49:02.544Z,30
2017-02-01T13:50:02.722Z,30
2017-02-01T13:51:03.057Z,30
2017-02-01T13:52:02.241Z,30
2017-02-01T13:53:02.624Z,30
2017-02-01T13:54:02.287Z,30
2017-02-01T13:55:02.243Z,30
2017-02-01T13:56:02.197Z,30
2017-02-01T13:57:02.207Z,30
2017-02-01T13:58:02.269Z,30
2017-02-01T13:59:01.922Z,30
2017-02-01T14:00:01.877Z,30
2017-02-01T14:01:02.537Z,30
2017-02-01T14:02:02.640Z,30
2017-02-01T14:03:02.650Z,30
2017-02-01T14:04:02.654Z,30
2017-02-01T14:05:02.378Z,30
2017-02-01T14:06:01.926Z,30
2017-02-01T14:07:02.330Z,30
2017-02-01T14:08:02.790Z,30
2017-02-01T14:09:02.294Z,30
2017-02-01T14:10:02.750Z,30
2017-02-01T14:11:02.713Z,30
2017-02-01T14:12:02.467Z,30
2017-02-01T14:13:02.780Z,30
2017-02-01T14:14:02.730Z,25
2017-02-01T14:15:01.946Z,25
2017-02-01T14:16:02.524Z,25
2017-02-01T14:17:02.369Z,25
2017-02-01T14:18:02.858Z,25
2017-02-01T14:19:02.555Z,25
2017-02-01T14:20:02.533Z,25
2017-02-01T14:21:02.830Z,25
2017-02-01T14:22:02.886Z,25
2017-02-01T14:23:02.445Z,25
2017-02-01T14:24:02.503Z,25
2017-02-01T14:25:02.817Z,25
2017-02-01T14:26:02.128Z,25
2017-02-01T14:27:02.422Z,25
2017-02-01T14:28:02.432Z,25
2017-02-01T14:29:02.496Z,25
2017-02-01T14:30:02.847Z,25
2017-02-01T14:31:02.854Z,25
2017-02-01T14:32:02.518Z,25